Time;durP1;ratioP1;P1;durP2;ratioP2;P2;SDS_P1;SDS_P2;PMS_P1;PMS_P2;Temp;Humidity;BMP_temperature;BMP_pressure;BME280_temperature;BME280_humidity;BME280_pressure;Samples;Min_cycle;Max_cycle;Signal;HPM_P1;HPM_P2
2023/03/17 00:00:20;;;;;;;94.00;37.10;;;;;;;-0.65;69.17;100970.57;106740;1272;25568;-57
2023/03/17 00:03:16;;;;;;;88.40;34.00;;;;;;;-0.65;69.20;100965.55;106744;1278;22519;-58
2023/03/17 00:05:47;;;;;;;86.80;35.90;;;;;;;-0.66;69.38;100965.79;106701;1278;22587;-59
2023/03/17 00:08:23;;;;;;;91.40;38.10;;;;;;;-0.67;69.37;100971.42;106822;1255;26986;-57
2023/03/17 00:10:54;;;;;;;95.60;39.10;;;;;;;-0.69;69.49;100967.35;106652;1279;23969;-57
2023/03/17 00:13:25;;;;;;;100.80;39.50;;;;;;;-0.70;69.49;100961.46;106706;1277;26711;-59
2023/03/17 00:16:00;;;;;;;95.10;40.50;;;;;;;-0.72;69.51;100960.05;106614;1268;26566;-58
2023/03/17 00:18:33;;;;;;;92.40;38.60;;;;;;;-0.73;69.52;100963.95;106394;1278;22647;-58
2023/03/17 00:21:06;;;;;;;95.40;42.40;;;;;;;-0.73;69.60;100966.23;106168;1279;22745;-58
2023/03/17 00:23:37;;;;;;;111.00;53.40;;;;;;;-0.76;69.61;100965.67;106158;1278;25468;-58
2023/03/17 00:26:09;;;;;;;152.30;66.30;;;;;;;-0.77;69.61;100963.70;106131;1272;25323;-56
2023/03/17 00:28:40;;;;;;;207.00;84.10;;;;;;;-0.78;69.64;100964.48;106146;1276;22544;-55
2023/03/17 00:31:15;;;;;;;209.30;87.50;;;;;;;-0.79;69.77;100964.95;106151;1278;22521;-58
2023/03/17 00:33:47;;;;;;;139.10;59.30;;;;;;;-0.80;69.81;100963.38;106254;1267;22608;-58
2023/03/17 00:36:21;;;;;;;124.90;52.20;;;;;;;-0.82;69.91;100960.88;106202;1278;25503;-57
2023/03/17 00:38:52;;;;;;;91.90;38.70;;;;;;;-0.83;69.93;100961.09;106235;1278;22591;-59
2023/03/17 00:41:23;;;;;;;75.90;33.80;;;;;;;-0.83;69.90;100957.10;106182;1272;22537;-55
2023/03/17 00:43:54;;;;;;;75.40;32.20;;;;;;;-0.84;70.02;100967.13;106636;1277;24099;-60
2023/03/17 00:46:34;;;;;;;69.30;32.10;;;;;;;-0.84;70.05;100968.37;106698;1278;24197;-59
2023/03/17 00:49:13;;;;;;;74.50;30.50;;;;;;;-0.84;69.99;100961.55;106681;1278;22535;-58
2023/03/17 00:51:44;;;;;;;65.80;30.50;;;;;;;-0.84;70.12;100960.77;106999;1263;22617;-59
2023/03/17 00:54:16;;;;;;;64.10;29.20;;;;;;;-0.85;70.14;100949.42;106764;1264;24274;-58
2023/03/17 00:56:49;;;;;;;71.20;29.70;;;;;;;-0.84;70.17;100940.48;106727;1278;25520;-58
2023/03/17 00:59:30;;;;;;;62.30;25.60;;;;;;;-0.85;70.23;100936.34;106795;1277;25632;-58
2023/03/17 01:02:01;;;;;;;63.60;28.20;;;;;;;-0.87;70.26;100930.15;106747;1279;22574;-58
2023/03/17 01:04:32;;;;;;;57.50;25.00;;;;;;;-0.87;70.35;100928.66;106588;1277;234952;-59
2023/03/17 01:07:04;;;;;;;54.80;22.60;;;;;;;-0.88;70.34;100926.77;106770;1277;22806;-59
2023/03/17 01:09:36;;;;;;;59.20;23.10;;;;;;;-0.90;70.37;100925.98;106732;1276;22643;-59
2023/03/17 01:12:11;;;;;;;58.10;23.60;;;;;;;-0.91;70.46;100916.96;106372;1265;22939;-57
2023/03/17 01:14:42;;;;;;;56.40;21.20;;;;;;;-0.91;70.45;100900.60;106377;1278;22566;-58
2023/03/17 01:17:17;;;;;;;54.80;20.80;;;;;;;-0.91;70.55;100895.20;106137;1278;25610;-58
2023/03/17 01:19:48;;;;;;;53.00;19.50;;;;;;;-0.93;70.62;100898.87;106472;1278;22518;-58
2023/03/17 01:22:19;;;;;;;54.90;20.80;;;;;;;-0.94;70.64;100901.30;106755;1277;22520;-59
2023/03/17 01:24:50;;;;;;;50.00;19.00;;;;;;;-0.94;70.64;100893.63;106707;1277;22731;-58
2023/03/17 01:27:21;;;;;;;49.30;19.30;;;;;;;-0.93;70.72;100881.16;106686;1272;22539;-58
2023/03/17 01:29:55;;;;;;;55.40;20.40;;;;;;;-0.94;70.75;100873.80;106743;1279;22552;-58
2023/03/17 01:32:27;;;;;;;55.20;20.20;;;;;;;-0.95;70.84;100862.92;106916;1274;22522;-59
2023/03/17 01:34:58;;;;;;;47.20;17.50;;;;;;;-0.97;70.98;100862.37;106542;1271;25498;-58
2023/03/17 01:37:28;;;;;;;46.80;17.80;;;;;;;-0.99;70.81;100862.98;106616;1271;25619;-60
2023/03/17 01:39:59;;;;;;;52.80;19.50;;;;;;;-1.01;71.02;100864.55;106719;1277;23306;-57
2023/03/17 01:42:30;;;;;;;54.50;18.70;;;;;;;-1.03;70.97;100872.52;106700;1272;22584;-59
2023/03/17 01:45:04;;;;;;;50.50;18.30;;;;;;;-1.04;71.04;100874.48;106793;1278;22561;-58
2023/03/17 01:47:35;;;;;;;55.00;20.40;;;;;;;-1.02;71.06;100873.54;106770;1268;24269;-60
2023/03/17 01:50:09;;;;;;;51.80;19.70;;;;;;;-1.01;71.18;100872.29;106696;1271;23252;-56
2023/03/17 01:52:41;;;;;;;63.80;23.60;;;;;;;-1.00;71.27;100875.52;106883;1267;22643;-58
2023/03/17 01:55:16;;;;;;;64.00;26.00;;;;;;;-1.00;71.21;100876.61;106858;1278;24356;-60
2023/03/17 01:57:52;;;;;;;62.90;23.50;;;;;;;-1.00;71.28;100872.30;106895;1276;22539;-58
2023/03/17 02:00:25;;;;;;;62.20;24.30;;;;;;;-1.00;71.34;100865.48;106801;1262;24420;-59
2023/03/17 02:02:57;;;;;;;58.10;20.00;;;;;;;-0.99;71.39;100854.21;106861;1279;22706;-59
2023/03/17 02:05:31;;;;;;;52.20;19.60;;;;;;;-1.00;71.37;100848.34;106718;1278;24229;-59
2023/03/17 02:08:03;;;;;;;47.10;20.60;;;;;;;-1.01;71.34;100856.33;106856;1265;23484;-58
2023/03/17 02:10:34;;;;;;;49.70;18.90;;;;;;;-1.04;71.40;100860.30;106791;1273;25445;-60
2023/03/17 02:13:08;;;;;;;48.20;18.60;;;;;;;-1.06;71.45;100860.54;106862;1268;23033;-60
2023/03/17 02:15:40;;;;;;;50.70;18.60;;;;;;;-1.07;71.48;100859.90;106730;1273;22688;-60
2023/03/17 02:18:12;;;;;;;53.10;18.10;;;;;;;-1.07;71.61;100853.87;106782;1272;22568;-58
2023/03/17 02:21:32;;;;;;;46.80;16.80;;;;;;;-1.07;71.71;100846.75;106813;1278;22535;-58
2023/03/17 02:24:08;;;;;;;46.80;18.00;;;;;;;-1.07;71.69;100845.26;106858;1279;25296;-57
2023/03/17 02:26:40;;;;;;;49.80;20.00;;;;;;;-1.09;71.67;100842.67;107901;1271;22999;-59
2023/03/17 02:29:11;;;;;;;57.80;20.30;;;;;;;-1.10;71.72;100843.92;106671;1273;25473;-59
2023/03/17 02:31:43;;;;;;;57.60;20.50;;;;;;;-1.11;71.83;100836.40;106405;1278;22541;-60
2023/03/17 02:34:15;;;;;;;48.90;18.50;;;;;;;-1.11;71.86;100832.70;106720;1276;25303;-59
2023/03/17 02:36:46;;;;;;;45.90;16.30;;;;;;;-1.12;71.97;100831.30;106848;1263;22823;-59
2023/03/17 02:39:17;;;;;;;42.30;16.50;;;;;;;-1.12;71.92;100830.66;106732;1278;22625;-58
2023/03/17 02:41:48;;;;;;;41.80;16.80;;;;;;;-1.12;71.95;100833.17;106660;1273;22715;-57
2023/03/17 02:44:19;;;;;;;44.00;16.10;;;;;;;-1.11;72.09;100831.46;106659;1271;22558;-59
2023/03/17 02:46:49;;;;;;;49.40;19.00;;;;;;;-1.12;72.05;100835.69;106782;1277;23033;-59
2023/03/17 02:49:21;;;;;;;47.30;17.40;;;;;;;-1.15;72.11;100838.97;106702;1278;25458;-59
2023/03/17 02:51:53;;;;;;;43.20;17.10;;;;;;;-1.17;72.13;100840.67;106837;1278;22590;-58
2023/03/17 02:54:24;;;;;;;47.90;17.00;;;;;;;-1.22;72.14;100847.39;106792;1278;25482;-60
2023/03/17 02:56:55;;;;;;;39.50;14.30;;;;;;;-1.25;72.08;100848.48;106808;1279;22804;-60
2023/03/17 02:59:26;;;;;;;39.90;14.70;;;;;;;-1.29;72.17;100849.08;106658;1278;22530;-58
2023/03/17 03:01:56;;;;;;;45.50;16.60;;;;;;;-1.31;72.24;100847.73;106672;1279;22835;-58
2023/03/17 03:04:27;;;;;;;50.20;17.20;;;;;;;-1.32;72.22;100848.98;106699;1265;22581;-60
2023/03/17 03:06:58;;;;;;;57.50;19.50;;;;;;;-1.32;72.37;100843.20;106680;1278;22598;-57
2023/03/17 03:09:29;;;;;;;55.60;20.40;;;;;;;-1.32;72.23;100846.87;106656;1264;25531;-58
2023/03/17 03:12:00;;;;;;;49.60;19.30;;;;;;;-1.32;72.35;100844.77;106684;1279;22512;-58
2023/03/17 03:14:32;;;;;;;49.80;19.10;;;;;;;-1.32;72.36;100843.82;106682;1278;24342;-59
2023/03/17 03:17:03;;;;;;;57.00;17.70;;;;;;;-1.33;72.38;100842.55;106743;1279;24308;-58
2023/03/17 03:19:34;;;;;;;48.50;18.70;;;;;;;-1.34;72.37;100841.62;106797;1271;22578;-59
2023/03/17 03:22:05;;;;;;;49.90;17.60;;;;;;;-1.35;72.41;100844.27;106906;1276;22644;-58
2023/03/17 03:24:36;;;;;;;47.30;18.00;;;;;;;-1.36;72.44;100849.82;106699;1276;25525;-59
2023/03/17 03:27:07;;;;;;;49.20;18.30;;;;;;;-1.36;72.50;100844.66;106777;1278;24195;-61
2023/03/17 03:29:38;;;;;;;49.60;17.60;;;;;;;-1.36;72.65;100841.77;106803;1278;25481;-60
2023/03/17 03:32:10;;;;;;;48.80;18.20;;;;;;;-1.37;72.66;100839.73;106669;1277;22659;-59
2023/03/17 03:34:41;;;;;;;54.90;20.50;;;;;;;-1.37;72.72;100835.81;106809;1278;25537;-59
2023/03/17 03:37:12;;;;;;;59.70;20.10;;;;;;;-1.38;72.71;100840.81;106653;1278;26936;-60
2023/03/17 03:39:43;;;;;;;59.30;19.80;;;;;;;-1.38;72.68;100834.95;106753;1277;22710;-58
2023/03/17 03:42:15;;;;;;;54.50;19.20;;;;;;;-1.39;72.74;100835.66;106762;1278;25604;-57
2023/03/17 03:44:46;;;;;;;47.90;17.70;;;;;;;-1.40;72.77;100838.45;106725;1279;25476;-59
2023/03/17 03:47:16;;;;;;;53.50;17.00;;;;;;;-1.43;72.76;100834.45;106742;1264;22582;-59
2023/03/17 03:49:47;;;;;;;51.30;17.20;;;;;;;-1.44;72.80;100820.60;106864;1276;26447;-58
2023/03/17 03:52:18;;;;;;;52.40;17.50;;;;;;;-1.44;72.95;100817.47;106728;1279;22687;-57
2023/03/17 03:54:49;;;;;;;49.10;17.60;;;;;;;-1.45;72.97;100815.20;106724;1260;22934;-58
2023/03/17 03:57:21;;;;;;;55.60;17.70;;;;;;;-1.46;73.04;100815.35;106701;1264;24308;-58
2023/03/17 03:59:52;;;;;;;54.30;17.10;;;;;;;-1.48;73.07;100814.80;106741;1279;24196;-56
2023/03/17 04:02:22;;;;;;;48.00;17.40;;;;;;;-1.48;73.10;100810.88;106784;1279;25567;-59
2023/03/17 04:04:54;;;;;;;43.10;15.70;;;;;;;-1.50;73.26;100809.30;106786;1273;22914;-58
2023/03/17 04:07:25;;;;;;;47.50;15.50;;;;;;;-1.51;73.29;100804.14;106741;1268;22687;-58
2023/03/17 04:09:56;;;;;;;45.00;16.70;;;;;;;-1.52;73.30;100798.34;106710;1278;26079;-58
2023/03/17 04:12:27;;;;;;;39.50;14.40;;;;;;;-1.52;73.36;100798.02;106683;1278;22642;-58
2023/03/17 04:14:58;;;;;;;44.30;15.80;;;;;;;-1.54;73.28;100797.48;106766;1278;24029;-59
2023/03/17 04:17:28;;;;;;;40.10;14.30;;;;;;;-1.56;73.40;100803.70;106666;1278;22578;-58
2023/03/17 04:19:59;;;;;;;39.20;14.20;;;;;;;-1.57;73.33;100800.91;106757;1271;25064;-57
2023/03/17 04:22:30;;;;;;;46.60;15.00;;;;;;;-1.58;73.37;100802.92;106705;1276;22598;-60
2023/03/17 04:25:01;;;;;;;44.40;16.60;;;;;;;-1.60;73.59;100800.96;106724;1276;25158;-60
2023/03/17 04:27:32;;;;;;;39.20;13.40;;;;;;;-1.63;73.58;100795.63;107478;1268;22760;-60
2023/03/17 04:30:03;;;;;;;43.00;16.40;;;;;;;-1.63;73.63;100794.37;107309;1279;25538;-58
2023/03/17 04:32:34;;;;;;;49.10;15.20;;;;;;;-1.66;73.55;100791.24;106774;1271;25572;-58
2023/03/17 04:35:09;;;;;;;46.60;17.00;;;;;;;-1.67;73.68;100787.40;106809;1276;22677;-58
2023/03/17 04:37:40;;;;;;;50.10;16.90;;;;;;;-1.67;73.77;100785.13;106755;1261;24225;-60
2023/03/17 04:40:13;;;;;;;48.50;17.80;;;;;;;-1.69;73.95;100785.82;106738;1276;22575;-58
2023/03/17 04:42:44;;;;;;;43.10;16.10;;;;;;;-1.70;74.12;100791.36;106690;1278;22566;-57
2023/03/17 04:45:16;;;;;;;38.60;14.70;;;;;;;-1.72;74.12;100795.89;106694;1273;22566;-58
2023/03/17 04:47:47;;;;;;;44.20;14.80;;;;;;;-1.72;74.20;100796.05;106768;1278;25513;-60
2023/03/17 04:50:18;;;;;;;45.30;17.10;;;;;;;-1.73;74.12;100799.96;106648;1265;22636;-58
2023/03/17 04:52:49;;;;;;;45.30;17.00;;;;;;;-1.73;74.24;100799.25;106683;1259;23135;-59
2023/03/17 04:55:20;;;;;;;49.00;17.70;;;;;;;-1.72;74.38;100796.44;106610;1278;22672;-58
2023/03/17 04:57:51;;;;;;;49.70;18.00;;;;;;;-1.70;74.37;100802.32;106726;1276;25539;-61
2023/03/17 05:00:22;;;;;;;51.30;18.80;;;;;;;-1.70;74.48;100804.42;106638;1278;23931;-58
2023/03/17 05:02:53;;;;;;;49.40;17.40;;;;;;;-1.71;74.47;100808.73;106808;1278;26624;-59
2023/03/17 05:05:24;;;;;;;48.30;16.30;;;;;;;-1.71;74.56;100802.88;106717;1270;24199;-60
2023/03/17 05:07:55;;;;;;;42.20;16.10;;;;;;;-1.70;74.56;100795.90;106646;1273;25600;-64
2023/03/17 05:10:26;;;;;;;46.10;17.50;;;;;;;-1.69;74.56;100800.91;106695;1262;23157;-57
2023/03/17 05:12:57;;;;;;;43.20;17.20;;;;;;;-1.70;74.54;100799.66;106731;1276;24558;-58
2023/03/17 05:15:28;;;;;;;54.50;18.80;;;;;;;-1.70;74.72;100796.45;106714;1278;22605;-57
2023/03/17 05:17:59;;;;;;;52.30;20.40;;;;;;;-1.69;74.75;100792.46;106716;1273;22828;-59
2023/03/17 05:20:30;;;;;;;57.30;21.80;;;;;;;-1.68;74.93;100794.81;106710;1273;22550;-59
2023/03/17 05:23:01;;;;;;;58.60;23.90;;;;;;;-1.68;74.87;100798.26;106736;1276;22692;-58
2023/03/17 05:25:31;;;;;;;59.60;23.30;;;;;;;-1.67;74.92;100796.63;106639;1279;25511;-59
2023/03/17 05:28:03;;;;;;;65.60;23.00;;;;;;;-1.66;74.91;100799.98;106575;1257;22660;-59
2023/03/17 05:30:35;;;;;;;54.70;21.10;;;;;;;-1.66;75.11;100798.44;106671;1278;24303;-59
2023/03/17 05:33:06;;;;;;;55.70;22.80;;;;;;;-1.65;75.03;100799.91;106652;1279;22543;-60
2023/03/17 05:35:37;;;;;;;52.70;20.10;;;;;;;-1.63;75.12;100800.40;106700;1278;25578;-59
2023/03/17 05:38:10;;;;;;;56.80;21.00;;;;;;;-1.61;75.08;100794.55;106573;1279;22586;-58
2023/03/17 05:40:41;;;;;;;53.40;21.10;;;;;;;-1.58;75.24;100794.70;106508;1273;22788;-59
2023/03/17 05:43:12;;;;;;;52.10;20.40;;;;;;;-1.57;75.34;100792.70;106502;1278;24194;-63
2023/03/17 05:45:44;;;;;;;52.90;20.70;;;;;;;-1.55;75.51;100787.77;106787;1276;22589;-59
2023/03/17 05:48:14;;;;;;;53.10;23.50;;;;;;;-1.53;75.63;100788.71;108476;1264;23436;-60
2023/03/17 05:50:46;;;;;;;58.30;21.10;;;;;;;-1.51;75.47;100793.33;106630;1278;22578;-58
2023/03/17 05:53:17;;;;;;;61.10;21.90;;;;;;;-1.48;75.46;100799.38;106625;1279;22750;-61
2023/03/17 05:55:48;;;;;;;58.20;22.20;;;;;;;-1.45;75.55;100798.30;106863;1276;22556;-59
2023/03/17 05:58:19;;;;;;;66.10;21.60;;;;;;;-1.42;75.60;100801.27;106608;1279;22988;-58
2023/03/17 06:00:50;;;;;;;63.10;23.20;;;;;;;-1.39;75.69;100805.45;106646;1278;22690;-58
2023/03/17 06:03:22;;;;;;;52.40;22.60;;;;;;;-1.36;75.74;100804.68;106623;1278;22685;-59
2023/03/17 06:05:53;;;;;;;61.30;23.70;;;;;;;-1.32;75.92;100798.34;106738;1278;22646;-58
2023/03/17 06:08:24;;;;;;;61.80;24.70;;;;;;;-1.27;75.90;100801.74;106626;1279;24179;-60
2023/03/17 06:10:55;;;;;;;66.00;26.70;;;;;;;-1.23;75.92;100805.58;106648;1276;25759;-57
2023/03/17 06:13:26;;;;;;;64.30;24.10;;;;;;;-1.19;75.92;100803.96;106760;1267;24011;-60
2023/03/17 06:15:57;;;;;;;61.70;24.10;;;;;;;-1.13;76.08;100806.96;106693;1278;22581;-58
2023/03/17 06:18:28;;;;;;;62.80;23.60;;;;;;;-1.07;76.08;100801.18;106821;1269;23039;-58
2023/03/17 06:20:59;;;;;;;69.50;23.30;;;;;;;-1.01;76.26;100800.73;106665;1278;23922;-58
2023/03/17 06:23:29;;;;;;;59.60;22.10;;;;;;;-0.93;76.42;100794.40;106663;1278;24257;-58
2023/03/17 06:26:00;;;;;;;57.50;21.20;;;;;;;-0.86;76.42;100797.23;106700;1279;22822;-58
2023/03/17 06:28:31;;;;;;;50.00;19.60;;;;;;;-0.77;76.45;100790.45;106680;1277;22702;-59
2023/03/17 06:31:02;;;;;;;53.30;20.80;;;;;;;-0.69;76.30;100792.35;107292;1273;23022;-60
2023/03/17 06:33:34;;;;;;;60.60;21.80;;;;;;;-0.61;76.51;100792.20;106818;1278;22607;-58
2023/03/17 06:36:06;;;;;;;56.70;21.60;;;;;;;-0.51;76.36;100786.88;106756;1278;22847;-59
2023/03/17 06:38:38;;;;;;;48.50;19.80;;;;;;;-0.41;76.12;100787.50;106626;1278;22603;-58
2023/03/17 06:41:08;;;;;;;58.90;21.70;;;;;;;-0.32;76.14;100788.21;106837;1278;22488;-58
2023/03/17 06:43:40;;;;;;;60.30;24.00;;;;;;;-0.23;76.15;100784.52;106706;1264;22772;-58
2023/03/17 06:46:10;;;;;;;56.80;21.30;;;;;;;-0.13;76.14;100783.98;106734;1276;22609;-59
2023/03/17 06:48:42;;;;;;;59.10;21.60;;;;;;;-0.03;76.02;100785.52;106723;1278;22531;-58
2023/03/17 06:51:13;;;;;;;53.00;20.90;;;;;;;0.07;75.88;100788.10;106833;1272;22536;-60
2023/03/17 06:53:44;;;;;;;53.50;21.80;;;;;;;0.16;75.90;100795.70;106732;1273;22648;-59
2023/03/17 06:56:15;;;;;;;57.10;22.40;;;;;;;0.23;75.80;100788.70;106674;1278;24266;-60
2023/03/17 06:58:46;;;;;;;50.10;20.40;;;;;;;0.33;76.02;100788.12;106885;1277;25513;-58
2023/03/17 07:01:17;;;;;;;53.80;20.40;;;;;;;0.43;75.93;100789.74;106800;1278;22664;-59
2023/03/17 07:03:48;;;;;;;50.20;20.20;;;;;;;0.52;75.59;100791.36;106706;1278;22528;-58
2023/03/17 07:06:19;;;;;;;54.30;21.10;;;;;;;0.60;75.49;100789.84;106718;1278;24034;-60
2023/03/17 07:08:51;;;;;;;48.40;19.80;;;;;;;0.68;75.43;100784.30;106724;1278;24275;-57
2023/03/17 07:11:22;;;;;;;52.30;19.90;;;;;;;0.78;75.26;100788.12;106807;1271;24308;-58
2023/03/17 07:13:53;;;;;;;44.50;17.80;;;;;;;0.89;75.02;100791.45;106727;1273;24224;-58
2023/03/17 07:16:24;;;;;;;44.10;16.90;;;;;;;0.97;74.84;100790.70;106676;1273;25258;-56
2023/03/17 07:18:55;;;;;;;54.40;20.40;;;;;;;1.04;74.90;100795.61;106722;1277;22792;-56
2023/03/17 07:21:25;;;;;;;47.90;18.10;;;;;;;1.12;74.68;100795.16;106763;1272;24242;-58
2023/03/17 07:23:56;;;;;;;50.20;20.10;;;;;;;1.20;74.55;100793.55;106738;1278;24199;-58
2023/03/17 07:26:27;;;;;;;45.60;19.50;;;;;;;1.28;74.48;100787.98;106924;1271;24158;-59
2023/03/17 07:28:59;;;;;;;44.90;19.90;;;;;;;1.35;74.58;100784.17;106815;1271;22533;-57
2023/03/17 07:31:30;;;;;;;50.80;20.90;;;;;;;1.41;74.52;100784.84;106847;1274;22520;-57
2023/03/17 07:34:01;;;;;;;42.10;17.30;;;;;;;1.48;74.33;100786.28;106720;1273;24192;-57
2023/03/17 07:36:32;;;;;;;41.60;16.70;;;;;;;1.57;74.18;100788.20;106757;1273;25502;-58
2023/03/17 07:39:04;;;;;;;45.90;18.80;;;;;;;1.66;74.05;100785.05;106784;1278;24216;-58
2023/03/17 07:41:35;;;;;;;50.70;19.20;;;;;;;1.74;74.16;100786.88;106816;1278;23194;-57
2023/03/17 07:44:08;;;;;;;49.90;19.30;;;;;;;1.81;74.15;100788.23;106834;1277;22536;-58
2023/03/17 07:46:39;;;;;;;55.50;20.50;;;;;;;1.87;74.01;100779.29;106752;1267;22603;-57
2023/03/17 07:49:10;;;;;;;52.70;19.60;;;;;;;1.94;73.74;100784.17;106720;1276;24229;-56
2023/03/17 07:51:42;;;;;;;41.70;19.00;;;;;;;2.02;73.67;100783.80;106732;1274;24209;-59
2023/03/17 07:54:14;;;;;;;46.70;19.50;;;;;;;2.10;73.63;100778.98;106758;1271;24591;-60
2023/03/17 07:56:45;;;;;;;44.90;17.50;;;;;;;2.17;73.52;100776.79;106906;1278;22626;-58
2023/03/17 07:59:17;;;;;;;47.40;18.40;;;;;;;2.26;73.49;100773.64;106798;1278;24250;-58
2023/03/17 08:01:48;;;;;;;41.00;17.70;;;;;;;2.35;73.48;100763.52;106822;1264;22590;-57
2023/03/17 08:04:19;;;;;;;39.80;17.00;;;;;;;2.44;73.29;100758.01;106767;1276;25421;-58
2023/03/17 08:06:51;;;;;;;38.10;15.40;;;;;;;2.49;73.03;100762.98;106798;1278;24339;-58
2023/03/17 08:09:22;;;;;;;39.80;17.10;;;;;;;2.59;72.96;100760.02;106875;1272;22549;-58
2023/03/17 08:11:53;;;;;;;43.50;17.20;;;;;;;2.69;72.85;100759.44;106734;1278;25293;-58
2023/03/17 08:14:24;;;;;;;42.40;16.30;;;;;;;2.78;72.73;100758.61;106779;1273;22681;-58
2023/03/17 08:16:56;;;;;;;33.80;14.70;;;;;;;2.89;72.54;100759.41;106751;1264;22553;-58
2023/03/17 08:19:27;;;;;;;35.50;15.40;;;;;;;3.00;72.13;100759.80;106823;1278;24209;-58
2023/03/17 08:21:58;;;;;;;37.60;14.30;;;;;;;3.12;72.00;100753.00;106815;1276;22815;-57
2023/03/17 08:24:29;;;;;;;36.30;14.80;;;;;;;3.25;72.14;100746.11;106885;1272;22528;-58
2023/03/17 08:27:01;;;;;;;38.60;14.60;;;;;;;3.38;71.85;100741.91;106766;1274;24888;-58
2023/03/17 08:29:31;;;;;;;32.10;13.50;;;;;;;3.48;71.54;100740.24;106881;1267;22461;-60
2023/03/17 08:32:03;;;;;;;39.60;15.90;;;;;;;3.56;71.33;100739.02;106992;1267;22605;-58
2023/03/17 08:34:33;;;;;;;35.20;15.00;;;;;;;3.62;71.24;100738.90;107273;1264;22485;-60
2023/03/17 08:37:05;;;;;;;42.00;16.40;;;;;;;3.70;71.35;100736.95;106746;1278;22526;-58
2023/03/17 08:39:36;;;;;;;38.00;14.60;;;;;;;3.79;71.13;100733.57;106853;1278;22564;-60
2023/03/17 08:42:07;;;;;;;35.40;13.10;;;;;;;3.88;70.93;100733.41;106839;1278;25617;-60
2023/03/17 08:44:38;;;;;;;29.20;10.50;;;;;;;3.98;70.46;100727.30;106822;1278;24564;-60
2023/03/17 08:47:09;;;;;;;26.90;9.40;;;;;;;4.11;69.46;100729.67;106843;1265;22676;-58
2023/03/17 08:49:41;;;;;;;28.00;11.10;;;;;;;4.24;69.38;100724.77;106781;1264;25433;-58
2023/03/17 08:52:12;;;;;;;28.10;9.90;;;;;;;4.36;69.50;100720.04;106780;1278;22646;-58
2023/03/17 08:54:43;;;;;;;28.60;11.20;;;;;;;4.46;69.33;100718.41;106817;1264;25271;-59
2023/03/17 08:57:14;;;;;;;29.20;9.70;;;;;;;4.57;69.08;100715.80;106963;1272;22529;-60
2023/03/17 08:59:46;;;;;;;33.60;11.10;;;;;;;4.71;68.67;100718.42;106734;1278;22619;-58
2023/03/17 09:02:17;;;;;;;27.40;9.30;;;;;;;4.83;68.59;100722.59;106869;1263;24894;-58
2023/03/17 09:04:48;;;;;;;23.70;8.40;;;;;;;4.95;68.13;100724.63;106815;1263;22538;-58
2023/03/17 09:07:18;;;;;;;27.50;10.40;;;;;;;5.08;67.85;100733.34;106875;1277;25439;-60
2023/03/17 09:09:49;;;;;;;29.70;10.10;;;;;;;5.20;67.93;100735.85;106807;1278;22527;-58
2023/03/17 09:12:21;;;;;;;24.80;8.90;;;;;;;5.29;67.74;100736.16;106892;1278;24225;-60
2023/03/17 09:14:53;;;;;;;27.70;9.80;;;;;;;5.38;67.38;100743.41;106837;1278;24673;-59
2023/03/17 09:17:24;;;;;;;29.80;7.70;;;;;;;5.47;66.29;100740.73;106904;1278;22555;-58
2023/03/17 09:19:56;;;;;;;24.50;7.30;;;;;;;5.58;65.95;100742.19;106953;1276;22524;-59
2023/03/17 09:22:27;;;;;;;25.60;7.30;;;;;;;5.70;65.81;100739.85;107114;1264;25441;-58
2023/03/17 09:24:58;;;;;;;21.10;7.30;;;;;;;5.77;66.07;100736.45;106899;1278;22570;-59
2023/03/17 09:27:29;;;;;;;21.50;7.20;;;;;;;5.83;65.09;100739.93;106848;1272;22525;-57
2023/03/17 09:29:59;;;;;;;18.70;6.80;;;;;;;5.90;65.21;100738.73;106976;1278;24220;-58
2023/03/17 09:32:31;;;;;;;27.30;9.30;;;;;;;5.99;65.02;100743.88;106931;1260;22651;-58
2023/03/17 09:35:02;;;;;;;29.30;8.80;;;;;;;6.08;64.86;100747.05;106980;1278;22523;-58
2023/03/17 09:37:34;;;;;;;26.70;6.70;;;;;;;6.20;64.59;100751.80;106905;1264;24220;-57
2023/03/17 09:40:07;;;;;;;20.90;6.10;;;;;;;6.30;63.92;100746.84;106877;1276;25283;-59
2023/03/17 09:42:50;;;;;;;20.10;6.50;;;;;;;6.42;63.61;100728.54;106917;1268;22833;-59
2023/03/17 09:45:30;;;;;;;15.60;4.90;;;;;;;6.51;63.56;100714.63;106963;1278;25441;-60
2023/03/17 09:48:28;;;;;;;15.00;3.30;;;;;;;6.58;62.64;100698.81;106913;1278;24954;-55
2023/03/17 09:51:03;;;;;;;13.60;3.20;;;;;;;6.68;61.67;100708.13;107115;1279;22711;-59
2023/03/17 09:53:40;;;;;;;15.60;3.50;;;;;;;6.76;61.44;100717.73;107058;1277;22524;-58
2023/03/17 09:56:16;;;;;;;12.30;3.00;;;;;;;6.84;60.40;100715.27;106949;1278;22527;-58
2023/03/17 09:58:51;;;;;;;9.90;2.30;;;;;;;6.94;59.81;100719.79;106980;1272;22488;-59
2023/03/17 10:01:24;;;;;;;12.20;2.70;;;;;;;7.06;59.81;100730.03;107018;1267;24408;-58
2023/03/17 10:03:55;;;;;;;13.20;2.60;;;;;;;7.15;60.23;100725.71;106993;1277;22539;-57
2023/03/17 10:06:47;;;;;;;12.40;3.70;;;;;;;7.25;60.24;100720.70;106965;1273;22523;-59
2023/03/17 10:09:25;;;;;;;10.90;2.40;;;;;;;7.38;60.38;100717.63;107111;1264;22521;-59
2023/03/17 10:12:06;;;;;;;17.10;2.60;;;;;;;7.47;58.85;100715.42;106891;1277;24255;-60
2023/03/17 10:14:38;;;;;;;;;;;;;;;7.57;58.87;100722.09;106968;1271;22479;-60
2023/03/17 10:17:17;;;;;;;10.20;2.40;;;;;;;7.69;57.61;100719.38;106952;1271;22574;-58
2023/03/17 10:19:55;;;;;;;9.00;2.10;;;;;;;7.81;57.13;100719.98;106913;1267;22566;-57
2023/03/17 10:22:31;;;;;;;11.40;2.10;;;;;;;7.90;57.47;100717.30;106909;1278;24313;-60
2023/03/17 10:25:06;;;;;;;12.70;2.70;;;;;;;7.97;57.15;100714.77;106891;1278;24191;-60
2023/03/17 10:27:39;;;;;;;12.80;2.00;;;;;;;8.01;56.61;100710.08;106951;1272;26552;-59
2023/03/17 10:30:16;;;;;;;8.60;1.80;;;;;;;8.04;56.07;100706.30;106947;1272;25984;-59
2023/03/17 10:32:47;;;;;;;7.80;1.80;;;;;;;8.08;55.67;100694.10;107047;1278;22538;-61
2023/03/17 10:35:20;;;;;;;10.20;1.90;;;;;;;8.12;55.10;100692.85;107614;1267;24263;-61
2023/03/17 10:37:52;;;;;;;8.50;2.10;;;;;;;8.13;54.85;100696.80;107134;1274;23030;-58
2023/03/17 10:40:27;;;;;;;11.60;1.70;;;;;;;8.16;54.72;100698.36;106945;1278;22614;-59
2023/03/17 10:43:06;;;;;;;12.10;2.10;;;;;;;8.20;54.47;100694.31;107007;1278;25474;-58
2023/03/17 10:45:40;;;;;;;6.90;1.70;;;;;;;8.27;54.41;100691.86;106835;1271;24281;-60
2023/03/17 10:48:17;;;;;;;9.80;2.30;;;;;;;8.37;53.98;100694.23;106750;1264;22891;-58
2023/03/17 10:50:49;;;;;;;8.00;1.80;;;;;;;8.43;54.68;100693.74;106889;1278;26536;-58
2023/03/17 10:53:27;;;;;;;9.70;2.00;;;;;;;8.50;53.76;100693.89;106849;1278;23028;-61
2023/03/17 10:56:07;;;;;;;10.90;2.50;;;;;;;8.60;53.07;100697.96;106860;1271;22591;-58
2023/03/17 10:58:44;;;;;;;10.00;2.10;;;;;;;8.67;52.82;100690.31;106922;1271;23130;-61
2023/03/17 11:01:23;;;;;;;7.80;3.10;;;;;;;8.73;53.71;100682.52;106916;1277;23019;-60
2023/03/17 11:03:55;;;;;;;9.10;1.90;;;;;;;8.73;53.33;100676.61;106862;1276;25293;-59
2023/03/17 11:06:37;;;;;;;8.20;1.70;;;;;;;8.75;53.33;100671.55;107171;1272;22530;-59
2023/03/17 11:09:17;;;;;;;7.40;1.50;;;;;;;8.77;53.34;100666.45;106787;1278;22754;-60
2023/03/17 11:11:59;;;;;;;9.30;1.90;;;;;;;8.85;51.91;100657.23;106866;1274;22527;-60
2023/03/17 11:14:30;;;;;;;8.00;1.30;;;;;;;8.92;52.00;100645.34;106805;1270;24207;-58
2023/03/17 11:17:04;;;;;;;8.00;1.30;;;;;;;8.96;51.98;100635.30;106905;1277;22564;-58
2023/03/17 11:19:48;;;;;;;12.10;2.70;;;;;;;9.03;51.27;100622.47;106848;1264;22483;-60
2023/03/17 11:22:25;;;;;;;9.60;1.60;;;;;;;9.15;51.64;100612.27;106832;1276;23167;-61
2023/03/17 11:25:05;;;;;;;8.00;1.60;;;;;;;9.25;50.74;100607.45;106857;1278;24226;-59
2023/03/17 11:27:42;;;;;;;7.20;1.50;;;;;;;9.34;50.45;100609.16;106874;1271;24173;-57
2023/03/17 11:30:32;;;;;;;12.70;1.80;;;;;;;9.40;50.67;100607.96;106816;1271;22573;-61